sensor_id;sensor_type;location;lat;lon;timestamp;pressure;altitude;pressure_sealevel;temperature;humidity
67029;BME280;53934;52.142;11.738;2022-10-17T00:01:47;101600.41;;;16.08;71.70
67029;BME280;53934;52.142;11.738;2022-10-17T00:04:13;101587.78;;;15.99;71.56
67029;BME280;53934;52.142;11.738;2022-10-17T00:06:40;101590.50;;;16.12;71.44
67029;BME280;53934;52.142;11.738;2022-10-17T00:09:06;101598.44;;;15.97;71.04
67029;BME280;53934;52.142;11.738;2022-10-17T00:11:34;101599.38;;;15.52;74.56
67029;BME280;53934;52.142;11.738;2022-10-17T00:14:01;101604.03;;;15.63;73.81
67029;BME280;53934;52.142;11.738;2022-10-17T00:16:31;101600.31;;;15.81;72.83
67029;BME280;53934;52.142;11.738;2022-10-17T00:18:59;101601.47;;;15.91;74.00
67029;BME280;53934;52.142;11.738;2022-10-17T00:21:25;101605.50;;;15.97;73.66
67029;BME280;53934;52.142;11.738;2022-10-17T00:23:52;101600.63;;;16.19;72.64
67029;BME280;53934;52.142;11.738;2022-10-17T00:26:19;101599.47;;;16.23;71.05
67029;BME280;53934;52.142;11.738;2022-10-17T00:28:46;101603.38;;;16.03;73.07
67029;BME280;53934;52.142;11.738;2022-10-17T00:31:14;101598.16;;;16.16;72.95
67029;BME280;53934;52.142;11.738;2022-10-17T00:33:42;101597.97;;;16.19;72.22
67029;BME280;53934;52.142;11.738;2022-10-17T00:36:12;101596.41;;;15.73;73.29
67029;BME280;53934;52.142;11.738;2022-10-17T00:38:39;101594.66;;;15.87;72.33
67029;BME280;53934;52.142;11.738;2022-10-17T00:41:07;101598.91;;;15.60;73.54
67029;BME280;53934;52.142;11.738;2022-10-17T00:43:52;101596.38;;;15.58;72.93
67029;BME280;53934;52.142;11.738;2022-10-17T00:46:21;101587.44;;;15.75;72.42
67029;BME280;53934;52.142;11.738;2022-10-17T00:48:51;101590.63;;;15.52;72.05
67029;BME280;53934;52.142;11.738;2022-10-17T00:51:22;101594.88;;;15.39;73.06
67029;BME280;53934;52.142;11.738;2022-10-17T00:53:50;101602.81;;;15.23;73.76
67029;BME280;53934;52.142;11.738;2022-10-17T00:56:17;101596.34;;;15.29;73.81
67029;BME280;53934;52.142;11.738;2022-10-17T00:58:45;101601.47;;;15.16;74.60
67029;BME280;53934;52.142;11.738;2022-10-17T01:01:11;101598.69;;;15.03;75.55
67029;BME280;53934;52.142;11.738;2022-10-17T01:03:38;101596.31;;;14.99;75.52
67029;BME280;53934;52.142;11.738;2022-10-17T01:06:06;101589.84;;;14.89;75.77
67029;BME280;53934;52.142;11.738;2022-10-17T01:08:32;101594.69;;;14.81;76.15
67029;BME280;53934;52.142;11.738;2022-10-17T01:11:05;101592.72;;;14.69;77.08
67029;BME280;53934;52.142;11.738;2022-10-17T01:13:38;101593.91;;;14.47;82.02
67029;BME280;53934;52.142;11.738;2022-10-17T01:16:08;101591.00;;;14.68;79.73
67029;BME280;53934;52.142;11.738;2022-10-17T01:18:45;101589.22;;;14.52;81.10
67029;BME280;53934;52.142;11.738;2022-10-17T01:21:27;101589.78;;;14.09;89.44
67029;BME280;53934;52.142;11.738;2022-10-17T01:24:25;101594.75;;;14.31;89.33
67029;BME280;53934;52.142;11.738;2022-10-17T01:27:21;101590.59;;;14.75;88.66
67029;BME280;53934;52.142;11.738;2022-10-17T01:29:58;101585.00;;;15.27;87.23
67029;BME280;53934;52.142;11.738;2022-10-17T01:32:33;101574.38;;;14.97;90.08
67029;BME280;53934;52.142;11.738;2022-10-17T01:35:04;101574.81;;;15.05;89.99
67029;BME280;53934;52.142;11.738;2022-10-17T01:37:39;101573.53;;;15.42;89.69
67029;BME280;53934;52.142;11.738;2022-10-17T01:40:13;101553.41;;;15.25;90.34
67029;BME280;53934;52.142;11.738;2022-10-17T01:42:45;101555.41;;;15.06;91.77
67029;BME280;53934;52.142;11.738;2022-10-17T01:45:15;101550.31;;;15.33;91.69
67029;BME280;53934;52.142;11.738;2022-10-17T01:47:47;101548.56;;;15.18;93.04
67029;BME280;53934;52.142;11.738;2022-10-17T01:50:18;101540.22;;;15.39;91.38
67029;BME280;53934;52.142;11.738;2022-10-17T01:52:49;101542.19;;;15.51;90.94
67029;BME280;53934;52.142;11.738;2022-10-17T01:55:19;101542.88;;;15.39;92.39
67029;BME280;53934;52.142;11.738;2022-10-17T01:57:49;101529.56;;;15.41;91.56
67029;BME280;53934;52.142;11.738;2022-10-17T02:00:19;101534.25;;;15.51;91.30
67029;BME280;53934;52.142;11.738;2022-10-17T02:02:52;101538.44;;;15.70;91.28
67029;BME280;53934;52.142;11.738;2022-10-17T02:05:24;101537.66;;;15.82;90.51
67029;BME280;53934;52.142;11.738;2022-10-17T02:07:51;101537.84;;;15.65;91.34
67029;BME280;53934;52.142;11.738;2022-10-17T02:10:21;101532.31;;;15.83;90.06
67029;BME280;53934;52.142;11.738;2022-10-17T02:12:55;101546.56;;;15.81;89.56
67029;BME280;53934;52.142;11.738;2022-10-17T02:15:52;101542.13;;;16.24;88.03
67029;BME280;53934;52.142;11.738;2022-10-17T02:18:39;101550.53;;;16.16;88.53
67029;BME280;53934;52.142;11.738;2022-10-17T02:21:14;101551.19;;;15.77;89.88
67029;BME280;53934;52.142;11.738;2022-10-17T02:23:48;101544.78;;;15.95;90.04
67029;BME280;53934;52.142;11.738;2022-10-17T02:26:20;101546.38;;;16.40;87.64
67029;BME280;53934;52.142;11.738;2022-10-17T02:28:57;101536.47;;;16.85;84.54
67029;BME280;53934;52.142;11.738;2022-10-17T02:31:31;101540.25;;;16.81;84.19
67029;BME280;53934;52.142;11.738;2022-10-17T02:34:01;101546.81;;;16.47;85.22
67029;BME280;53934;52.142;11.738;2022-10-17T02:36:35;101546.63;;;16.50;85.82
67029;BME280;53934;52.142;11.738;2022-10-17T02:39:05;101546.25;;;16.42;85.65
67029;BME280;53934;52.142;11.738;2022-10-17T02:41:34;101541.00;;;16.83;83.41
67029;BME280;53934;52.142;11.738;2022-10-17T02:44:02;101542.38;;;16.47;84.82
67029;BME280;53934;52.142;11.738;2022-10-17T02:46:32;101553.88;;;16.75;83.32
67029;BME280;53934;52.142;11.738;2022-10-17T02:49:04;101545.03;;;17.15;80.56
67029;BME280;53934;52.142;11.738;2022-10-17T02:51:36;101538.47;;;16.53;83.62
67029;BME280;53934;52.142;11.738;2022-10-17T02:54:11;101542.00;;;16.53;83.01
67029;BME280;53934;52.142;11.738;2022-10-17T02:56:42;101540.09;;;16.41;83.97
67029;BME280;53934;52.142;11.738;2022-10-17T02:59:14;101553.25;;;16.00;86.38
67029;BME280;53934;52.142;11.738;2022-10-17T03:01:42;101549.81;;;16.00;85.59
67029;BME280;53934;52.142;11.738;2022-10-17T03:04:12;101554.09;;;15.73;85.79
67029;BME280;53934;52.142;11.738;2022-10-17T03:06:40;101557.34;;;15.78;84.71
67029;BME280;53934;52.142;11.738;2022-10-17T03:09:07;101547.69;;;15.47;87.22
67029;BME280;53934;52.142;11.738;2022-10-17T03:11:33;101544.13;;;15.48;86.96
67029;BME280;53934;52.142;11.738;2022-10-17T03:14:00;101547.31;;;15.69;86.34
67029;BME280;53934;52.142;11.738;2022-10-17T03:16:26;101538.44;;;15.84;86.12
67029;BME280;53934;52.142;11.738;2022-10-17T03:18:53;101531.50;;;15.37;89.52
67029;BME280;53934;52.142;11.738;2022-10-17T03:21:21;101532.81;;;15.30;92.72
67029;BME280;53934;52.142;11.738;2022-10-17T03:23:47;101537.19;;;15.31;92.83
67029;BME280;53934;52.142;11.738;2022-10-17T03:26:14;101531.19;;;15.43;92.60
67029;BME280;53934;52.142;11.738;2022-10-17T03:28:40;101533.22;;;15.38;92.99
67029;BME280;53934;52.142;11.738;2022-10-17T03:31:07;101518.94;;;15.27;94.56
67029;BME280;53934;52.142;11.738;2022-10-17T03:33:34;101517.81;;;15.31;94.59
67029;BME280;53934;52.142;11.738;2022-10-17T03:36:04;101523.47;;;14.95;97.75
67029;BME280;53934;52.142;11.738;2022-10-17T03:38:32;101530.47;;;14.80;99.28
67029;BME280;53934;52.142;11.738;2022-10-17T03:40:58;101524.19;;;15.13;96.76
67029;BME280;53934;52.142;11.738;2022-10-17T03:43:25;101527.16;;;15.22;97.47
67029;BME280;53934;52.142;11.738;2022-10-17T03:45:51;101532.00;;;15.00;97.75
67029;BME280;53934;52.142;11.738;2022-10-17T03:48:18;101525.00;;;15.29;97.06
67029;BME280;53934;52.142;11.738;2022-10-17T03:50:44;101520.16;;;15.21;96.82
67029;BME280;53934;52.142;11.738;2022-10-17T03:53:11;101535.13;;;14.91;99.19
67029;BME280;53934;52.142;11.738;2022-10-17T03:55:39;101532.72;;;15.02;98.49
67029;BME280;53934;52.142;11.738;2022-10-17T03:58:05;101533.50;;;15.34;96.10
67029;BME280;53934;52.142;11.738;2022-10-17T04:00:31;101531.22;;;15.28;97.09
67029;BME280;53934;52.142;11.738;2022-10-17T04:02:58;101533.72;;;15.15;98.91
67029;BME280;53934;52.142;11.738;2022-10-17T04:05:24;101530.06;;;15.47;96.29
67029;BME280;53934;52.142;11.738;2022-10-17T04:07:51;101538.09;;;15.30;97.48
67029;BME280;53934;52.142;11.738;2022-10-17T04:10:17;101535.25;;;15.19;98.24
67029;BME280;53934;52.142;11.738;2022-10-17T04:12:45;101539.91;;;15.59;96.31
67029;BME280;53934;52.142;11.738;2022-10-17T04:15:11;101535.66;;;15.57;96.89
67029;BME280;53934;52.142;11.738;2022-10-17T04:17:39;101536.72;;;15.54;96.34
67029;BME280;53934;52.142;11.738;2022-10-17T04:20:06;101546.56;;;15.67;96.40
67029;BME280;53934;52.142;11.738;2022-10-17T04:22:33;101537.81;;;15.50;96.75
67029;BME280;53934;52.142;11.738;2022-10-17T04:24:59;101537.84;;;15.65;96.17
67029;BME280;53934;52.142;11.738;2022-10-17T04:27:26;101531.91;;;15.75;95.22
67029;BME280;53934;52.142;11.738;2022-10-17T04:29:53;101537.56;;;15.55;96.00
67029;BME280;53934;52.142;11.738;2022-10-17T04:32:20;101538.31;;;15.57;96.78
67029;BME280;53934;52.142;11.738;2022-10-17T04:34:47;101545.63;;;15.96;93.82
67029;BME280;53934;52.142;11.738;2022-10-17T04:37:14;101541.16;;;15.82;93.70
67029;BME280;53934;52.142;11.738;2022-10-17T04:39:41;101550.25;;;16.21;90.77
67029;BME280;53934;52.142;11.738;2022-10-17T04:42:07;101540.44;;;16.08;91.99
67029;BME280;53934;52.142;11.738;2022-10-17T04:44:33;101541.16;;;15.82;91.92
67029;BME280;53934;52.142;11.738;2022-10-17T04:47:01;101541.53;;;15.32;96.46
67029;BME280;53934;52.142;11.738;2022-10-17T04:49:28;101536.06;;;15.35;95.95
67029;BME280;53934;52.142;11.738;2022-10-17T04:51:54;101549.53;;;15.61;94.41
67029;BME280;53934;52.142;11.738;2022-10-17T04:54:21;101552.19;;;15.31;96.94
67029;BME280;53934;52.142;11.738;2022-10-17T04:56:47;101546.22;;;15.57;96.22
67029;BME280;53934;52.142;11.738;2022-10-17T04:59:13;101546.44;;;15.68;94.86
67029;BME280;53934;52.142;11.738;2022-10-17T05:01:40;101556.44;;;15.33;98.04
67029;BME280;53934;52.142;11.738;2022-10-17T05:04:08;101549.78;;;15.26;97.76
67029;BME280;53934;52.142;11.738;2022-10-17T05:06:36;101541.63;;;15.45;95.75
67029;BME280;53934;52.142;11.738;2022-10-17T05:09:03;101546.91;;;15.61;94.94
67029;BME280;53934;52.142;11.738;2022-10-17T05:11:29;101545.75;;;15.50;96.00
67029;BME280;53934;52.142;11.738;2022-10-17T05:13:57;101546.09;;;15.44;95.37
67029;BME280;53934;52.142;11.738;2022-10-17T05:16:24;101542.16;;;15.22;96.04
67029;BME280;53934;52.142;11.738;2022-10-17T05:18:53;101548.31;;;15.22;98.68
67029;BME280;53934;52.142;11.738;2022-10-17T05:21:22;101543.00;;;15.22;98.57
67029;BME280;53934;52.142;11.738;2022-10-17T05:23:49;101545.94;;;14.86;100.00
67029;BME280;53934;52.142;11.738;2022-10-17T05:26:16;101551.28;;;15.00;99.99
67029;BME280;53934;52.142;11.738;2022-10-17T05:28:43;101546.38;;;15.40;97.59
67029;BME280;53934;52.142;11.738;2022-10-17T05:31:10;101557.00;;;15.08;99.18
67029;BME280;53934;52.142;11.738;2022-10-17T05:33:37;101556.50;;;14.86;100.00
67029;BME280;53934;52.142;11.738;2022-10-17T05:36:05;101558.59;;;14.66;100.00
67029;BME280;53934;52.142;11.738;2022-10-17T05:38:33;101550.72;;;15.11;99.41
67029;BME280;53934;52.142;11.738;2022-10-17T05:41:02;101554.16;;;15.27;98.45
67029;BME280;53934;52.142;11.738;2022-10-17T05:43:29;101554.84;;;15.61;96.00
67029;BME280;53934;52.142;11.738;2022-10-17T05:45:56;101555.22;;;15.54;95.73
67029;BME280;53934;52.142;11.738;2022-10-17T05:48:23;101554.38;;;15.38;97.44
67029;BME280;53934;52.142;11.738;2022-10-17T05:50:56;101558.25;;;15.33;97.47
67029;BME280;53934;52.142;11.738;2022-10-17T05:53:23;101558.97;;;15.50;96.73
67029;BME280;53934;52.142;11.738;2022-10-17T05:55:56;101557.88;;;14.93;99.90
67029;BME280;53934;52.142;11.738;2022-10-17T05:58:22;101555.63;;;15.17;98.92
67029;BME280;53934;52.142;11.738;2022-10-17T06:00:49;101553.44;;;15.39;97.51
67029;BME280;53934;52.142;11.738;2022-10-17T06:03:16;101558.75;;;15.24;97.98
67029;BME280;53934;52.142;11.738;2022-10-17T06:05:42;101541.56;;;15.46;96.43
67029;BME280;53934;52.142;11.738;2022-10-17T06:08:08;101554.53;;;15.51;96.83
67029;BME280;53934;52.142;11.738;2022-10-17T06:10:35;101561.84;;;15.62;95.30
67029;BME280;53934;52.142;11.738;2022-10-17T06:13:05;101556.97;;;15.84;94.07
67029;BME280;53934;52.142;11.738;2022-10-17T06:15:32;101562.44;;;16.09;92.50
67029;BME280;53934;52.142;11.738;2022-10-17T06:17:58;101566.03;;;16.08;93.08
67029;BME280;53934;52.142;11.738;2022-10-17T06:20:25;101571.22;;;15.95;92.48
67029;BME280;53934;52.142;11.738;2022-10-17T06:22:51;101578.41;;;16.07;93.40
67029;BME280;53934;52.142;11.738;2022-10-17T06:25:18;101572.47;;;16.18;92.86
67029;BME280;53934;52.142;11.738;2022-10-17T06:27:44;101579.25;;;16.65;89.16
67029;BME280;53934;52.142;11.738;2022-10-17T06:30:12;101580.13;;;16.37;89.78
67029;BME280;53934;52.142;11.738;2022-10-17T06:32:38;101584.34;;;16.68;88.93
67029;BME280;53934;52.142;11.738;2022-10-17T06:35:06;101572.72;;;16.42;90.17
67029;BME280;53934;52.142;11.738;2022-10-17T06:37:33;101573.25;;;16.75;87.65
67029;BME280;53934;52.142;11.738;2022-10-17T06:40:00;101575.31;;;16.29;91.04
67029;BME280;53934;52.142;11.738;2022-10-17T06:42:27;101574.00;;;16.91;87.45
67029;BME280;53934;52.142;11.738;2022-10-17T06:44:53;101580.03;;;16.93;87.54
67029;BME280;53934;52.142;11.738;2022-10-17T06:47:21;101584.28;;;17.23;85.41
67029;BME280;53934;52.142;11.738;2022-10-17T06:49:48;101581.03;;;17.05;87.03
67029;BME280;53934;52.142;11.738;2022-10-17T06:52:14;101593.78;;;17.39;84.88
67029;BME280;53934;52.142;11.738;2022-10-17T06:54:41;101591.91;;;17.54;84.22
67029;BME280;53934;52.142;11.738;2022-10-17T06:57:08;101589.22;;;18.06;81.08
67029;BME280;53934;52.142;11.738;2022-10-17T06:59:34;101596.19;;;18.58;79.41
67029;BME280;53934;52.142;11.738;2022-10-17T07:02:01;101601.84;;;18.53;79.80
67029;BME280;53934;52.142;11.738;2022-10-17T07:04:29;101610.69;;;19.14;76.77
67029;BME280;53934;52.142;11.738;2022-10-17T07:06:55;101615.41;;;18.48;78.36
67029;BME280;53934;52.142;11.738;2022-10-17T07:09:22;101621.94;;;18.81;77.96
67029;BME280;53934;52.142;11.738;2022-10-17T07:11:49;101610.00;;;18.99;76.26
67029;BME280;53934;52.142;11.738;2022-10-17T07:14:15;101613.34;;;19.14;75.57
67029;BME280;53934;52.142;11.738;2022-10-17T07:16:42;101617.34;;;18.95;77.37
67029;BME280;53934;52.142;11.738;2022-10-17T07:19:09;101618.25;;;19.43;74.68
67029;BME280;53934;52.142;11.738;2022-10-17T07:21:37;101619.53;;;19.73;73.25
67029;BME280;53934;52.142;11.738;2022-10-17T07:24:04;101614.13;;;19.85;73.08
67029;BME280;53934;52.142;11.738;2022-10-17T07:26:31;101611.75;;;20.05;73.15
67029;BME280;53934;52.142;11.738;2022-10-17T07:28:57;101611.31;;;20.33;70.79
67029;BME280;53934;52.142;11.738;2022-10-17T07:31:24;101619.91;;;20.48;71.64
67029;BME280;53934;52.142;11.738;2022-10-17T07:33:50;101616.25;;;20.82;68.34
67029;BME280;53934;52.142;11.738;2022-10-17T07:36:17;101615.06;;;20.64;70.01
67029;BME280;53934;52.142;11.738;2022-10-17T07:38:45;101614.44;;;20.71;69.64
67029;BME280;53934;52.142;11.738;2022-10-17T07:41:12;101614.88;;;20.99;67.51
67029;BME280;53934;52.142;11.738;2022-10-17T07:43:39;101618.34;;;21.10;67.47
67029;BME280;53934;52.142;11.738;2022-10-17T07:46:07;101615.31;;;21.58;67.67
67029;BME280;53934;52.142;11.738;2022-10-17T07:48:35;101619.78;;;21.78;64.86
67029;BME280;53934;52.142;11.738;2022-10-17T07:51:03;101622.09;;;21.51;66.95
67029;BME280;53934;52.142;11.738;2022-10-17T07:53:30;101619.66;;;21.59;67.53
67029;BME280;53934;52.142;11.738;2022-10-17T07:55:58;101620.53;;;22.01;63.96
67029;BME280;53934;52.142;11.738;2022-10-17T07:58:24;101626.41;;;22.46;62.83
67029;BME280;53934;52.142;11.738;2022-10-17T08:00:52;101622.75;;;21.96;63.52
67029;BME280;53934;52.142;11.738;2022-10-17T08:03:19;101621.81;;;21.65;65.29
67029;BME280;53934;52.142;11.738;2022-10-17T08:05:45;101627.44;;;21.82;65.25
67029;BME280;53934;52.142;11.738;2022-10-17T08:08:12;101623.31;;;21.58;65.26
67029;BME280;53934;52.142;11.738;2022-10-17T08:10:38;101630.81;;;22.26;63.55
67029;BME280;53934;52.142;11.738;2022-10-17T08:13:06;101630.66;;;21.97;63.36
67029;BME280;53934;52.142;11.738;2022-10-17T08:15:35;101633.22;;;21.35;65.99
67029;BME280;53934;52.142;11.738;2022-10-17T08:18:02;101631.50;;;21.98;64.02
67029;BME280;53934;52.142;11.738;2022-10-17T08:20:28;101632.16;;;22.71;62.04
67029;BME280;53934;52.142;11.738;2022-10-17T08:22:55;101641.75;;;23.71;58.92
67029;BME280;53934;52.142;11.738;2022-10-17T08:25:22;101638.94;;;22.75;60.93
67029;BME280;53934;52.142;11.738;2022-10-17T08:27:49;101634.72;;;22.22;63.66
67029;BME280;53934;52.142;11.738;2022-10-17T08:30:17;101630.91;;;21.94;64.71
67029;BME280;53934;52.142;11.738;2022-10-17T08:32:43;101624.44;;;21.97;63.88
67029;BME280;53934;52.142;11.738;2022-10-17T08:35:10;101627.59;;;21.70;64.91
67029;BME280;53934;52.142;11.738;2022-10-17T08:37:38;101624.44;;;21.12;67.00
67029;BME280;53934;52.142;11.738;2022-10-17T08:40:06;101610.56;;;21.29;67.32
67029;BME280;53934;52.142;11.738;2022-10-17T08:42:48;101615.00;;;21.93;65.76
67029;BME280;53934;52.142;11.738;2022-10-17T08:45:26;101603.94;;;22.58;63.48
67029;BME280;53934;52.142;11.738;2022-10-17T08:47:57;101609.88;;;23.40;59.89
67029;BME280;53934;52.142;11.738;2022-10-17T08:50:29;101595.50;;;23.79;60.99
67029;BME280;53934;52.142;11.738;2022-10-17T08:53:02;101604.50;;;23.88;59.87
67029;BME280;53934;52.142;11.738;2022-10-17T08:55:34;101604.19;;;24.00;58.54
67029;BME280;53934;52.142;11.738;2022-10-17T08:58:02;101599.91;;;23.61;58.39
67029;BME280;53934;52.142;11.738;2022-10-17T09:00:31;101598.78;;;23.44;59.22
67029;BME280;53934;52.142;11.738;2022-10-17T09:03:08;101598.66;;;23.65;60.64
67029;BME280;53934;52.142;11.738;2022-10-17T09:05:44;101596.75;;;23.94;59.30
67029;BME280;53934;52.142;11.738;2022-10-17T09:08:27;101602.22;;;24.02;57.65
67029;BME280;53934;52.142;11.738;2022-10-17T09:11:04;101593.00;;;23.68;59.15
67029;BME280;53934;52.142;11.738;2022-10-17T09:13:45;101593.44;;;23.54;59.01
67029;BME280;53934;52.142;11.738;2022-10-17T09:16:31;101601.09;;;22.99;60.98
67029;BME280;53934;52.142;11.738;2022-10-17T09:19:06;101604.94;;;23.25;60.33
67029;BME280;53934;52.142;11.738;2022-10-17T09:21:41;101591.91;;;24.17;57.96
67029;BME280;53934;52.142;11.738;2022-10-17T09:24:14;101590.94;;;25.00;56.25
67029;BME280;53934;52.142;11.738;2022-10-17T09:26:43;101586.97;;;25.22;54.39
67029;BME280;53934;52.142;11.738;2022-10-17T09:29:17;101581.75;;;25.38;54.74
67029;BME280;53934;52.142;11.738;2022-10-17T09:31:50;101590.53;;;24.95;54.78
67029;BME280;53934;52.142;11.738;2022-10-17T09:34:18;101589.19;;;25.87;52.48
67029;BME280;53934;52.142;11.738;2022-10-17T09:36:45;101599.06;;;25.79;51.27
67029;BME280;53934;52.142;11.738;2022-10-17T09:39:13;101600.34;;;26.52;52.52
67029;BME280;53934;52.142;11.738;2022-10-17T09:41:43;101591.81;;;26.64;51.34
67029;BME280;53934;52.142;11.738;2022-10-17T09:44:16;101604.53;;;26.88;48.06
67029;BME280;53934;52.142;11.738;2022-10-17T09:46:59;101597.19;;;25.97;48.96
67029;BME280;53934;52.142;11.738;2022-10-17T09:49:31;101596.16;;;25.37;49.40
67029;BME280;53934;52.142;11.738;2022-10-17T09:51:59;101592.34;;;25.57;50.21
67029;BME280;53934;52.142;11.738;2022-10-17T09:54:28;101600.13;;;26.37;48.97
67029;BME280;53934;52.142;11.738;2022-10-17T09:56:59;101604.63;;;27.37;46.20
67029;BME280;53934;52.142;11.738;2022-10-17T09:59:31;101605.78;;;27.10;46.24
67029;BME280;53934;52.142;11.738;2022-10-17T10:02:13;101611.06;;;27.68;47.26
67029;BME280;53934;52.142;11.738;2022-10-17T10:04:54;101623.50;;;27.45;44.71
67029;BME280;53934;52.142;11.738;2022-10-17T10:07:22;101613.09;;;26.42;46.97
67029;BME280;53934;52.142;11.738;2022-10-17T10:09:50;101605.97;;;26.33;49.65
67029;BME280;53934;52.142;11.738;2022-10-17T10:12:19;101612.22;;;26.75;47.42
67029;BME280;53934;52.142;11.738;2022-10-17T10:14:46;101603.28;;;26.07;48.36
67029;BME280;53934;52.142;11.738;2022-10-17T10:17:35;101606.22;;;25.70;49.62
67029;BME280;53934;52.142;11.738;2022-10-17T10:20:24;101600.09;;;25.42;49.17
67029;BME280;53934;52.142;11.738;2022-10-17T10:23:04;101601.16;;;25.32;51.75
67029;BME280;53934;52.142;11.738;2022-10-17T10:25:31;101590.13;;;25.35;49.83
67029;BME280;53934;52.142;11.738;2022-10-17T10:27:58;101597.00;;;25.02;51.59
67029;BME280;53934;52.142;11.738;2022-10-17T10:30:28;101605.31;;;25.08;50.93
67029;BME280;53934;52.142;11.738;2022-10-17T10:32:58;101617.31;;;24.77;51.51
67029;BME280;53934;52.142;11.738;2022-10-17T10:35:31;101602.09;;;25.05;51.70
67029;BME280;53934;52.142;11.738;2022-10-17T10:38:00;101605.69;;;24.59;53.48
67029;BME280;53934;52.142;11.738;2022-10-17T10:40:30;101600.34;;;24.59;51.45
67029;BME280;53934;52.142;11.738;2022-10-17T10:42:58;101607.13;;;24.26;52.73
67029;BME280;53934;52.142;11.738;2022-10-17T10:45:27;101600.03;;;24.35;53.02
67029;BME280;53934;52.142;11.738;2022-10-17T10:47:57;101598.75;;;24.66;52.40
67029;BME280;53934;52.142;11.738;2022-10-17T10:50:28;101599.75;;;24.38;52.88
67029;BME280;53934;52.142;11.738;2022-10-17T10:53:09;101599.19;;;24.34;53.56
67029;BME280;53934;52.142;11.738;2022-10-17T10:55:42;101598.56;;;24.50;52.55
67029;BME280;53934;52.142;11.738;2022-10-17T10:58:30;101609.28;;;24.50;53.00
67029;BME280;53934;52.142;11.738;2022-10-17T11:01:03;101601.88;;;24.61;53.11
67029;BME280;53934;52.142;11.738;2022-10-17T11:03:34;101605.28;;;24.81;52.00
67029;BME280;53934;52.142;11.738;2022-10-17T11:06:05;101602.97;;;25.13;51.24
67029;BME280;53934;52.142;11.738;2022-10-17T11:08:39;101604.69;;;25.67;51.11
67029;BME280;53934;52.142;11.738;2022-10-17T11:11:13;101612.66;;;25.77;49.04
67029;BME280;53934;52.142;11.738;2022-10-17T11:13:47;101596.97;;;25.90;48.47
67029;BME280;53934;52.142;11.738;2022-10-17T11:16:27;101603.84;;;25.67;49.01
67029;BME280;53934;52.142;11.738;2022-10-17T11:19:03;101604.00;;;25.65;50.61
67029;BME280;53934;52.142;11.738;2022-10-17T11:21:39;101607.38;;;25.67;50.04
67029;BME280;53934;52.142;11.738;2022-10-17T11:24:15;101612.16;;;25.56;49.51
67029;BME280;53934;52.142;11.738;2022-10-17T11:26:49;101611.44;;;25.01;50.44
67029;BME280;53934;52.142;11.738;2022-10-17T11:29:19;101609.41;;;24.85;50.91
67029;BME280;53934;52.142;11.738;2022-10-17T11:31:51;101595.00;;;24.86;51.86
67029;BME280;53934;52.142;11.738;2022-10-17T11:34:22;101608.09;;;24.89;51.42
67029;BME280;53934;52.142;11.738;2022-10-17T11:36:53;101599.34;;;24.87;52.60
67029;BME280;53934;52.142;11.738;2022-10-17T11:39:28;101600.56;;;25.38;50.45
67029;BME280;53934;52.142;11.738;2022-10-17T11:41:58;101606.53;;;25.67;50.02
67029;BME280;53934;52.142;11.738;2022-10-17T11:44:31;101606.53;;;25.67;50.29
67029;BME280;53934;52.142;11.738;2022-10-17T11:47:04;101601.50;;;26.15;48.92
67029;BME280;53934;52.142;11.738;2022-10-17T11:49:36;101598.94;;;26.14;48.51
67029;BME280;53934;52.142;11.738;2022-10-17T11:52:14;101594.28;;;26.16;49.23
67029;BME280;53934;52.142;11.738;2022-10-17T11:54:48;101593.53;;;25.80;50.19
67029;BME280;53934;52.142;11.738;2022-10-17T11:57:30;101592.66;;;26.23;49.15
67029;BME280;53934;52.142;11.738;2022-10-17T12:00:10;101587.28;;;26.65;48.47
67029;BME280;53934;52.142;11.738;2022-10-17T12:02:47;101591.59;;;26.50;47.91
67029;BME280;53934;52.142;11.738;2022-10-17T12:05:23;101590.00;;;26.05;49.52
67029;BME280;53934;52.142;11.738;2022-10-17T12:07:58;101589.06;;;25.89;49.82
67029;BME280;53934;52.142;11.738;2022-10-17T12:10:37;101591.22;;;25.50;49.94
67029;BME280;53934;52.142;11.738;2022-10-17T12:16:38;101601.53;;;25.01;51.03
67029;BME280;53934;52.142;11.738;2022-10-17T12:19:34;101603.06;;;24.77;51.88
67029;BME280;53934;52.142;11.738;2022-10-17T12:22:11;101593.72;;;25.08;51.27
67029;BME280;53934;52.142;11.738;2022-10-17T12:24:43;101593.28;;;25.12;50.59
67029;BME280;53934;52.142;11.738;2022-10-17T12:27:43;101593.63;;;25.17;50.46
67029;BME280;53934;52.142;11.738;2022-10-17T12:30:20;101595.50;;;25.35;50.72
67029;BME280;53934;52.142;11.738;2022-10-17T12:33:05;101586.19;;;25.47;50.61
67029;BME280;53934;52.142;11.738;2022-10-17T12:35:39;101594.91;;;25.84;50.72
67029;BME280;53934;52.142;11.738;2022-10-17T12:38:28;101590.63;;;25.99;49.12
67029;BME280;53934;52.142;11.738;2022-10-17T12:41:04;101594.50;;;25.53;49.45
67029;BME280;53934;52.142;11.738;2022-10-17T12:43:42;101599.63;;;25.11;50.62
67029;BME280;53934;52.142;11.738;2022-10-17T12:46:09;101602.00;;;25.32;51.15
67029;BME280;53934;52.142;11.738;2022-10-17T12:49:02;101597.88;;;25.55;49.56
67029;BME280;53934;52.142;11.738;2022-10-17T12:51:28;101606.75;;;25.99;49.55
67029;BME280;53934;52.142;11.738;2022-10-17T12:53:58;101598.38;;;26.02;49.68
67029;BME280;53934;52.142;11.738;2022-10-17T12:56:35;101588.38;;;25.87;48.96
67029;BME280;53934;52.142;11.738;2022-10-17T12:59:07;101595.09;;;26.16;48.17
67029;BME280;53934;52.142;11.738;2022-10-17T13:01:36;101581.06;;;25.97;49.02